Pagrindinis puslapis
METAR-TAF:

METAR-TAF

Oro uostai :

Pskovas, Rusija

platuma: 57-47-06N, ilguma: 028-23-54E, Aukštis: 47 m

Dabartinis oras

Ataskaita buvo paskelbta 24 minutes, ne 04:30 UTC
Vėjas 8 kt iš Pietvakarių, svyruoja nuo Pietų ir Vakarų/Pietvakarių
Temperatūra 20°C
Drėgmė 83%
Slėgis 1014 hPa
Matomumas 10 km arba daugiau
nėra debesų žemiau 1500 m ir nėra kamuolinių lietaus debesų

METAR: ULOO 250430Z 22004MPS 190V250 CAVOK 20/17 Q1014 R19/090060 NOSIG RMK QFE756

Laikas: 07:54 (04:54 UTC)

Prognozė

Ataskaita buvo paskelbta 3 valandos ir 0 minutes, ne 01:54 UTC
Prognozė galioja nuo 25 metu 03 UTC su 25 metu 12 UTC
Vėjas 6 kt iš Pietų
Matomumas 10 km arba daugiau
Išsisklaidę debesys ne aukštis 3000 ft
Laikinai
nuo 25 metu 03 UTC su 25 metu 12 UTC
Matomumas: 6000 m
Su prošvaistėmis ne aukštis 2000 ft, Liūtiniai kamuoliniai debesys.
perkūnija, lietus

TAF: ULOO 250154Z 2503/2512 17003MPS 9999 SCT030 TEMPO 2503/2512 6000 -TSRA BKN020CB

Orai ataskaitas ir orų prognozės (METAR, TAF).

turimą stotys yra geltonos ir raudonos taškus žemėlapyje.

Perkelti pele per norėdami pamatyti stoties vardą.

Tada spustelėkite, norėdami matyti oro stebėjimo ir prognozės.

Norėdami pakeisti žemėlapį: spustelėkite ant žalios mygtukų su juodo kryžiaus žemyn,; žalią mygtuką su brūkšneliu, jei norite nutolinti; arba žalių rodyklių gretimoms žemėlapius.


METAR-TAF: